sensor_id;sensor_type;location;lat;lon;timestamp;P1;durP1;ratioP1;P2;durP2;ratioP2
25279;SDS011;13225;47.804;12.116;2023-08-01T00:01:27;5.88;;;2.80;;
25279;SDS011;13225;47.804;12.116;2023-08-01T00:03:54;3.20;;;2.45;;
25279;SDS011;13225;47.804;12.116;2023-08-01T00:06:19;5.07;;;2.83;;
25279;SDS011;13225;47.804;12.116;2023-08-01T00:08:46;5.97;;;3.10;;
25279;SDS011;13225;47.804;12.116;2023-08-01T00:11:12;5.57;;;3.28;;
25279;SDS011;13225;47.804;12.116;2023-08-01T00:13:39;8.70;;;3.30;;
25279;SDS011;13225;47.804;12.116;2023-08-01T00:16:05;6.47;;;3.10;;
25279;SDS011;13225;47.804;12.116;2023-08-01T00:18:31;4.85;;;2.83;;
25279;SDS011;13225;47.804;12.116;2023-08-01T00:20:56;9.95;;;3.30;;
25279;SDS011;13225;47.804;12.116;2023-08-01T00:23:23;5.05;;;3.00;;
25279;SDS011;13225;47.804;12.116;2023-08-01T00:25:49;7.82;;;3.47;;
25279;SDS011;13225;47.804;12.116;2023-08-01T00:28:21;5.78;;;3.20;;
25279;SDS011;13225;47.804;12.116;2023-08-01T00:30:47;6.13;;;3.28;;
25279;SDS011;13225;47.804;12.116;2023-08-01T00:33:13;3.42;;;2.50;;
25279;SDS011;13225;47.804;12.116;2023-08-01T00:35:39;5.57;;;3.22;;
25279;SDS011;13225;47.804;12.116;2023-08-01T00:38:05;3.78;;;2.85;;
25279;SDS011;13225;47.804;12.116;2023-08-01T00:40:31;3.88;;;2.70;;
25279;SDS011;13225;47.804;12.116;2023-08-01T00:42:57;5.95;;;2.65;;
25279;SDS011;13225;47.804;12.116;2023-08-01T00:45:23;4.32;;;2.78;;
25279;SDS011;13225;47.804;12.116;2023-08-01T00:47:54;4.68;;;3.10;;
25279;SDS011;13225;47.804;12.116;2023-08-01T00:50:20;5.10;;;3.05;;
25279;SDS011;13225;47.804;12.116;2023-08-01T00:52:47;6.40;;;3.20;;
25279;SDS011;13225;47.804;12.116;2023-08-01T00:55:14;5.45;;;3.00;;
25279;SDS011;13225;47.804;12.116;2023-08-01T00:57:40;6.45;;;3.08;;
25279;SDS011;13225;47.804;12.116;2023-08-01T01:00:06;4.60;;;2.80;;
25279;SDS011;13225;47.804;12.116;2023-08-01T01:02:33;4.38;;;2.85;;
25279;SDS011;13225;47.804;12.116;2023-08-01T01:04:59;7.25;;;3.30;;
25279;SDS011;13225;47.804;12.116;2023-08-01T01:07:25;6.13;;;3.40;;
25279;SDS011;13225;47.804;12.116;2023-08-01T01:09:51;6.30;;;3.55;;
25279;SDS011;13225;47.804;12.116;2023-08-01T01:12:17;3.92;;;2.97;;
25279;SDS011;13225;47.804;12.116;2023-08-01T01:14:42;4.55;;;3.08;;
25279;SDS011;13225;47.804;12.116;2023-08-01T01:17:08;6.93;;;3.17;;
25279;SDS011;13225;47.804;12.116;2023-08-01T01:19:34;6.68;;;3.20;;
25279;SDS011;13225;47.804;12.116;2023-08-01T01:21:59;5.97;;;3.00;;
25279;SDS011;13225;47.804;12.116;2023-08-01T01:24:25;5.45;;;3.25;;
25279;SDS011;13225;47.804;12.116;2023-08-01T01:26:52;5.55;;;3.20;;
25279;SDS011;13225;47.804;12.116;2023-08-01T01:29:20;5.57;;;2.83;;
25279;SDS011;13225;47.804;12.116;2023-08-01T01:31:46;4.03;;;2.90;;
25279;SDS011;13225;47.804;12.116;2023-08-01T01:34:14;7.40;;;4.68;;
25279;SDS011;13225;47.804;12.116;2023-08-01T01:36:39;4.47;;;2.90;;
25279;SDS011;13225;47.804;12.116;2023-08-01T01:39:05;4.50;;;2.90;;
25279;SDS011;13225;47.804;12.116;2023-08-01T01:41:31;5.40;;;2.88;;
25279;SDS011;13225;47.804;12.116;2023-08-01T01:43:56;4.22;;;2.85;;
25279;SDS011;13225;47.804;12.116;2023-08-01T01:46:22;4.20;;;2.72;;
25279;SDS011;13225;47.804;12.116;2023-08-01T01:48:47;4.05;;;2.97;;
25279;SDS011;13225;47.804;12.116;2023-08-01T01:51:13;4.70;;;2.80;;
25279;SDS011;13225;47.804;12.116;2023-08-01T01:53:38;2.72;;;2.38;;
25279;SDS011;13225;47.804;12.116;2023-08-01T01:56:04;4.95;;;2.85;;
25279;SDS011;13225;47.804;12.116;2023-08-01T01:58:29;4.47;;;2.95;;
25279;SDS011;13225;47.804;12.116;2023-08-01T02:00:55;3.83;;;2.97;;
25279;SDS011;13225;47.804;12.116;2023-08-01T02:03:21;5.68;;;3.75;;
25279;SDS011;13225;47.804;12.116;2023-08-01T02:05:46;5.13;;;3.22;;
25279;SDS011;13225;47.804;12.116;2023-08-01T02:08:12;3.97;;;3.20;;
25279;SDS011;13225;47.804;12.116;2023-08-01T02:10:38;3.88;;;3.15;;
25279;SDS011;13225;47.804;12.116;2023-08-01T02:13:03;5.20;;;3.22;;
25279;SDS011;13225;47.804;12.116;2023-08-01T02:15:29;4.47;;;3.25;;
25279;SDS011;13225;47.804;12.116;2023-08-01T02:17:55;5.45;;;2.88;;
25279;SDS011;13225;47.804;12.116;2023-08-01T02:20:21;3.65;;;2.92;;
25279;SDS011;13225;47.804;12.116;2023-08-01T02:22:46;6.65;;;3.22;;
25279;SDS011;13225;47.804;12.116;2023-08-01T02:25:12;4.28;;;3.20;;
25279;SDS011;13225;47.804;12.116;2023-08-01T02:27:38;4.90;;;3.40;;
25279;SDS011;13225;47.804;12.116;2023-08-01T02:30:03;4.78;;;3.25;;
25279;SDS011;13225;47.804;12.116;2023-08-01T02:32:30;5.40;;;3.10;;
25279;SDS011;13225;47.804;12.116;2023-08-01T02:34:56;3.35;;;2.60;;
25279;SDS011;13225;47.804;12.116;2023-08-01T02:37:21;4.80;;;3.03;;
25279;SDS011;13225;47.804;12.116;2023-08-01T02:39:47;6.75;;;3.00;;
25279;SDS011;13225;47.804;12.116;2023-08-01T02:42:12;6.57;;;3.20;;
25279;SDS011;13225;47.804;12.116;2023-08-01T02:44:38;4.25;;;3.67;;
25279;SDS011;13225;47.804;12.116;2023-08-01T02:47:03;4.43;;;3.03;;
25279;SDS011;13225;47.804;12.116;2023-08-01T02:49:31;4.75;;;2.90;;
25279;SDS011;13225;47.804;12.116;2023-08-01T02:51:56;5.80;;;3.22;;
25279;SDS011;13225;47.804;12.116;2023-08-01T02:54:23;4.68;;;2.67;;
25279;SDS011;13225;47.804;12.116;2023-08-01T02:56:49;4.72;;;3.38;;
25279;SDS011;13225;47.804;12.116;2023-08-01T02:59:15;5.93;;;3.35;;
25279;SDS011;13225;47.804;12.116;2023-08-01T03:01:40;6.18;;;3.88;;
25279;SDS011;13225;47.804;12.116;2023-08-01T03:04:06;5.22;;;3.47;;
25279;SDS011;13225;47.804;12.116;2023-08-01T03:06:32;4.68;;;3.20;;
25279;SDS011;13225;47.804;12.116;2023-08-01T03:08:58;6.45;;;3.35;;
25279;SDS011;13225;47.804;12.116;2023-08-01T03:11:24;5.43;;;3.28;;
25279;SDS011;13225;47.804;12.116;2023-08-01T03:13:49;4.35;;;3.30;;
25279;SDS011;13225;47.804;12.116;2023-08-01T03:16:15;5.25;;;3.40;;
25279;SDS011;13225;47.804;12.116;2023-08-01T03:18:41;4.75;;;3.17;;
25279;SDS011;13225;47.804;12.116;2023-08-01T03:21:08;5.20;;;3.60;;
25279;SDS011;13225;47.804;12.116;2023-08-01T03:23:33;6.25;;;4.07;;
25279;SDS011;13225;47.804;12.116;2023-08-01T03:25:59;4.15;;;3.47;;
25279;SDS011;13225;47.804;12.116;2023-08-01T03:28:25;6.38;;;3.38;;
25279;SDS011;13225;47.804;12.116;2023-08-01T03:30:51;6.75;;;4.00;;
25279;SDS011;13225;47.804;12.116;2023-08-01T03:33:18;9.00;;;3.78;;
25279;SDS011;13225;47.804;12.116;2023-08-01T03:35:46;5.63;;;3.97;;
25279;SDS011;13225;47.804;12.116;2023-08-01T03:38:12;8.15;;;3.95;;
25279;SDS011;13225;47.804;12.116;2023-08-01T03:40:38;7.05;;;3.90;;
25279;SDS011;13225;47.804;12.116;2023-08-01T03:43:04;4.35;;;3.47;;
25279;SDS011;13225;47.804;12.116;2023-08-01T03:45:30;6.40;;;3.60;;
25279;SDS011;13225;47.804;12.116;2023-08-01T03:47:55;5.80;;;3.72;;
25279;SDS011;13225;47.804;12.116;2023-08-01T03:50:21;4.57;;;3.78;;
25279;SDS011;13225;47.804;12.116;2023-08-01T03:52:47;4.78;;;3.75;;
25279;SDS011;13225;47.804;12.116;2023-08-01T03:55:12;6.30;;;4.10;;
25279;SDS011;13225;47.804;12.116;2023-08-01T03:57:38;8.27;;;3.88;;
25279;SDS011;13225;47.804;12.116;2023-08-01T04:00:06;6.18;;;4.00;;
25279;SDS011;13225;47.804;12.116;2023-08-01T04:02:38;7.63;;;3.60;;
25279;SDS011;13225;47.804;12.116;2023-08-01T04:05:07;7.35;;;4.45;;
25279;SDS011;13225;47.804;12.116;2023-08-01T04:07:34;6.10;;;4.78;;
25279;SDS011;13225;47.804;12.116;2023-08-01T04:10:03;6.50;;;4.13;;
25279;SDS011;13225;47.804;12.116;2023-08-01T04:12:30;7.25;;;4.38;;
25279;SDS011;13225;47.804;12.116;2023-08-01T04:14:57;6.03;;;3.47;;
25279;SDS011;13225;47.804;12.116;2023-08-01T04:17:22;7.07;;;4.20;;
25279;SDS011;13225;47.804;12.116;2023-08-01T04:19:48;4.70;;;4.05;;
25279;SDS011;13225;47.804;12.116;2023-08-01T04:22:13;6.38;;;3.95;;
25279;SDS011;13225;47.804;12.116;2023-08-01T04:24:39;8.23;;;3.95;;
25279;SDS011;13225;47.804;12.116;2023-08-01T04:27:05;8.27;;;4.45;;
25279;SDS011;13225;47.804;12.116;2023-08-01T04:29:30;6.30;;;4.03;;
25279;SDS011;13225;47.804;12.116;2023-08-01T04:31:56;6.70;;;4.13;;
25279;SDS011;13225;47.804;12.116;2023-08-01T04:34:22;4.80;;;3.97;;
25279;SDS011;13225;47.804;12.116;2023-08-01T04:36:47;5.38;;;3.78;;
25279;SDS011;13225;47.804;12.116;2023-08-01T04:39:13;6.30;;;4.45;;
25279;SDS011;13225;47.804;12.116;2023-08-01T04:41:39;6.40;;;4.40;;
25279;SDS011;13225;47.804;12.116;2023-08-01T04:44:04;4.93;;;4.15;;
25279;SDS011;13225;47.804;12.116;2023-08-01T04:46:31;6.18;;;4.03;;
25279;SDS011;13225;47.804;12.116;2023-08-01T04:48:57;6.13;;;3.78;;
25279;SDS011;13225;47.804;12.116;2023-08-01T04:51:22;4.63;;;3.78;;
25279;SDS011;13225;47.804;12.116;2023-08-01T04:53:48;6.15;;;4.03;;
25279;SDS011;13225;47.804;12.116;2023-08-01T04:56:13;5.90;;;4.00;;
25279;SDS011;13225;47.804;12.116;2023-08-01T04:58:39;6.35;;;4.00;;
25279;SDS011;13225;47.804;12.116;2023-08-01T05:01:04;8.10;;;4.05;;
25279;SDS011;13225;47.804;12.116;2023-08-01T05:03:30;5.70;;;4.25;;
25279;SDS011;13225;47.804;12.116;2023-08-01T05:05:55;5.57;;;4.20;;
25279;SDS011;13225;47.804;12.116;2023-08-01T05:08:21;5.35;;;4.20;;
25279;SDS011;13225;47.804;12.116;2023-08-01T05:10:47;7.57;;;4.28;;
25279;SDS011;13225;47.804;12.116;2023-08-01T05:13:12;5.43;;;3.90;;
25279;SDS011;13225;47.804;12.116;2023-08-01T05:15:39;5.47;;;3.88;;
25279;SDS011;13225;47.804;12.116;2023-08-01T05:18:04;7.07;;;4.38;;
25279;SDS011;13225;47.804;12.116;2023-08-01T05:20:30;5.18;;;3.72;;
25279;SDS011;13225;47.804;12.116;2023-08-01T05:22:59;5.53;;;4.00;;
25279;SDS011;13225;47.804;12.116;2023-08-01T05:25:25;5.78;;;4.22;;
25279;SDS011;13225;47.804;12.116;2023-08-01T05:27:50;6.93;;;4.30;;
25279;SDS011;13225;47.804;12.116;2023-08-01T05:30:16;5.85;;;4.20;;
25279;SDS011;13225;47.804;12.116;2023-08-01T05:32:41;6.57;;;4.38;;
25279;SDS011;13225;47.804;12.116;2023-08-01T05:35:08;6.18;;;4.35;;
25279;SDS011;13225;47.804;12.116;2023-08-01T05:37:34;8.13;;;4.40;;
25279;SDS011;13225;47.804;12.116;2023-08-01T05:40:01;7.75;;;3.95;;
25279;SDS011;13225;47.804;12.116;2023-08-01T05:42:28;5.78;;;4.30;;
25279;SDS011;13225;47.804;12.116;2023-08-01T05:44:54;6.88;;;4.60;;
25279;SDS011;13225;47.804;12.116;2023-08-01T05:47:19;5.43;;;4.65;;
25279;SDS011;13225;47.804;12.116;2023-08-01T05:49:45;5.35;;;4.40;;
25279;SDS011;13225;47.804;12.116;2023-08-01T05:52:10;5.72;;;4.28;;
25279;SDS011;13225;47.804;12.116;2023-08-01T05:54:36;5.13;;;3.70;;
25279;SDS011;13225;47.804;12.116;2023-08-01T05:57:01;6.80;;;4.40;;
25279;SDS011;13225;47.804;12.116;2023-08-01T05:59:27;6.00;;;3.92;;
25279;SDS011;13225;47.804;12.116;2023-08-01T06:01:53;6.28;;;4.03;;
25279;SDS011;13225;47.804;12.116;2023-08-01T06:04:18;6.50;;;3.83;;
25279;SDS011;13225;47.804;12.116;2023-08-01T06:06:44;6.10;;;4.00;;
25279;SDS011;13225;47.804;12.116;2023-08-01T06:09:10;7.70;;;4.03;;
25279;SDS011;13225;47.804;12.116;2023-08-01T06:11:35;12.18;;;4.60;;
25279;SDS011;13225;47.804;12.116;2023-08-01T06:14:01;8.43;;;4.45;;
25279;SDS011;13225;47.804;12.116;2023-08-01T06:16:26;7.03;;;4.22;;
25279;SDS011;13225;47.804;12.116;2023-08-01T06:18:52;7.80;;;4.65;;
25279;SDS011;13225;47.804;12.116;2023-08-01T06:21:18;6.30;;;4.22;;
25279;SDS011;13225;47.804;12.116;2023-08-01T06:23:44;7.45;;;4.63;;
25279;SDS011;13225;47.804;12.116;2023-08-01T06:26:09;10.27;;;5.07;;
25279;SDS011;13225;47.804;12.116;2023-08-01T06:28:35;9.70;;;5.15;;
25279;SDS011;13225;47.804;12.116;2023-08-01T06:31:00;7.00;;;5.05;;
25279;SDS011;13225;47.804;12.116;2023-08-01T06:33:26;7.30;;;5.00;;
25279;SDS011;13225;47.804;12.116;2023-08-01T06:35:51;8.63;;;5.57;;
25279;SDS011;13225;47.804;12.116;2023-08-01T06:38:17;7.70;;;5.18;;
25279;SDS011;13225;47.804;12.116;2023-08-01T06:40:42;8.48;;;5.35;;
25279;SDS011;13225;47.804;12.116;2023-08-01T06:43:08;8.45;;;5.32;;
25279;SDS011;13225;47.804;12.116;2023-08-01T06:45:33;7.68;;;5.25;;
25279;SDS011;13225;47.804;12.116;2023-08-01T06:47:59;7.28;;;5.07;;
25279;SDS011;13225;47.804;12.116;2023-08-01T06:50:25;8.50;;;5.43;;
25279;SDS011;13225;47.804;12.116;2023-08-01T06:52:50;6.65;;;4.72;;
25279;SDS011;13225;47.804;12.116;2023-08-01T06:55:16;6.72;;;4.88;;
25279;SDS011;13225;47.804;12.116;2023-08-01T06:57:41;6.45;;;4.78;;
25279;SDS011;13225;47.804;12.116;2023-08-01T07:00:07;7.65;;;4.45;;
25279;SDS011;13225;47.804;12.116;2023-08-01T07:02:33;9.95;;;6.30;;
25279;SDS011;13225;47.804;12.116;2023-08-01T07:04:59;10.10;;;5.53;;
25279;SDS011;13225;47.804;12.116;2023-08-01T07:07:24;8.82;;;5.60;;
25279;SDS011;13225;47.804;12.116;2023-08-01T07:09:50;9.27;;;6.72;;
25279;SDS011;13225;47.804;12.116;2023-08-01T07:12:16;7.38;;;4.78;;
25279;SDS011;13225;47.804;12.116;2023-08-01T07:14:41;7.78;;;4.53;;
25279;SDS011;13225;47.804;12.116;2023-08-01T07:17:07;8.30;;;5.22;;
25279;SDS011;13225;47.804;12.116;2023-08-01T07:19:33;7.60;;;5.82;;
25279;SDS011;13225;47.804;12.116;2023-08-01T07:21:58;6.13;;;4.72;;
25279;SDS011;13225;47.804;12.116;2023-08-01T07:24:24;7.88;;;4.55;;
25279;SDS011;13225;47.804;12.116;2023-08-01T07:26:49;7.60;;;5.30;;
25279;SDS011;13225;47.804;12.116;2023-08-01T07:29:15;9.02;;;4.25;;
25279;SDS011;13225;47.804;12.116;2023-08-01T07:31:41;7.18;;;4.30;;
25279;SDS011;13225;47.804;12.116;2023-08-01T07:34:07;7.38;;;4.60;;
25279;SDS011;13225;47.804;12.116;2023-08-01T07:36:33;6.35;;;4.30;;
25279;SDS011;13225;47.804;12.116;2023-08-01T07:38:58;8.57;;;5.13;;
25279;SDS011;13225;47.804;12.116;2023-08-01T07:41:24;6.32;;;4.90;;
25279;SDS011;13225;47.804;12.116;2023-08-01T07:43:49;8.30;;;5.05;;
25279;SDS011;13225;47.804;12.116;2023-08-01T07:46:15;6.40;;;4.30;;
25279;SDS011;13225;47.804;12.116;2023-08-01T07:48:41;5.28;;;3.88;;
25279;SDS011;13225;47.804;12.116;2023-08-01T07:51:06;5.75;;;3.92;;
25279;SDS011;13225;47.804;12.116;2023-08-01T07:53:33;7.15;;;3.70;;
25279;SDS011;13225;47.804;12.116;2023-08-01T07:55:59;5.50;;;3.90;;
25279;SDS011;13225;47.804;12.116;2023-08-01T07:58:27;5.40;;;3.60;;
25279;SDS011;13225;47.804;12.116;2023-08-01T08:00:53;7.40;;;4.03;;
25279;SDS011;13225;47.804;12.116;2023-08-01T08:03:18;6.15;;;4.22;;
25279;SDS011;13225;47.804;12.116;2023-08-01T08:05:47;6.55;;;4.20;;
25279;SDS011;13225;47.804;12.116;2023-08-01T08:08:13;7.40;;;4.57;;
25279;SDS011;13225;47.804;12.116;2023-08-01T08:10:39;4.28;;;3.55;;
25279;SDS011;13225;47.804;12.116;2023-08-01T08:13:04;4.78;;;3.30;;
25279;SDS011;13225;47.804;12.116;2023-08-01T08:15:30;5.93;;;3.65;;
25279;SDS011;13225;47.804;12.116;2023-08-01T08:17:59;5.43;;;3.55;;
25279;SDS011;13225;47.804;12.116;2023-08-01T08:20:29;4.13;;;3.10;;
25279;SDS011;13225;47.804;12.116;2023-08-01T08:22:56;4.88;;;3.50;;
25279;SDS011;13225;47.804;12.116;2023-08-01T08:25:22;4.45;;;3.08;;
25279;SDS011;13225;47.804;12.116;2023-08-01T08:27:50;5.28;;;3.78;;
25279;SDS011;13225;47.804;12.116;2023-08-01T08:30:16;4.75;;;3.38;;
25279;SDS011;13225;47.804;12.116;2023-08-01T08:32:42;5.60;;;3.33;;
25279;SDS011;13225;47.804;12.116;2023-08-01T08:35:07;6.22;;;3.20;;
25279;SDS011;13225;47.804;12.116;2023-08-01T08:37:33;4.25;;;3.30;;
25279;SDS011;13225;47.804;12.116;2023-08-01T08:39:58;5.07;;;3.22;;
25279;SDS011;13225;47.804;12.116;2023-08-01T08:42:24;4.35;;;3.38;;
25279;SDS011;13225;47.804;12.116;2023-08-01T08:44:50;4.00;;;2.88;;
25279;SDS011;13225;47.804;12.116;2023-08-01T08:47:21;4.18;;;3.15;;
25279;SDS011;13225;47.804;12.116;2023-08-01T08:49:51;5.53;;;3.50;;
25279;SDS011;13225;47.804;12.116;2023-08-01T08:52:18;3.85;;;3.45;;
25279;SDS011;13225;47.804;12.116;2023-08-01T08:54:44;4.32;;;3.10;;
25279;SDS011;13225;47.804;12.116;2023-08-01T08:57:10;5.18;;;3.58;;
25279;SDS011;13225;47.804;12.116;2023-08-01T08:59:36;6.68;;;4.00;;
25279;SDS011;13225;47.804;12.116;2023-08-01T09:02:03;5.80;;;3.22;;
25279;SDS011;13225;47.804;12.116;2023-08-01T09:04:29;5.18;;;3.30;;
25279;SDS011;13225;47.804;12.116;2023-08-01T09:06:58;4.85;;;3.40;;
25279;SDS011;13225;47.804;12.116;2023-08-01T09:09:32;6.25;;;3.67;;
25279;SDS011;13225;47.804;12.116;2023-08-01T09:11:59;4.90;;;3.80;;
25279;SDS011;13225;47.804;12.116;2023-08-01T09:14:25;3.67;;;2.92;;
25279;SDS011;13225;47.804;12.116;2023-08-01T09:16:50;5.32;;;3.30;;
25279;SDS011;13225;47.804;12.116;2023-08-01T09:19:23;5.50;;;3.05;;
25279;SDS011;13225;47.804;12.116;2023-08-01T09:21:50;71.43;;;8.43;;
25279;SDS011;13225;47.804;12.116;2023-08-01T09:24:19;7.95;;;3.40;;
25279;SDS011;13225;47.804;12.116;2023-08-01T09:26:46;4.03;;;3.05;;
25279;SDS011;13225;47.804;12.116;2023-08-01T09:29:13;4.20;;;2.97;;
25279;SDS011;13225;47.804;12.116;2023-08-01T09:31:41;4.68;;;3.13;;
25279;SDS011;13225;47.804;12.116;2023-08-01T09:34:23;5.03;;;3.55;;
25279;SDS011;13225;47.804;12.116;2023-08-01T09:36:50;6.50;;;3.35;;
25279;SDS011;13225;47.804;12.116;2023-08-01T09:39:17;5.05;;;3.28;;
25279;SDS011;13225;47.804;12.116;2023-08-01T09:41:44;6.25;;;3.83;;
25279;SDS011;13225;47.804;12.116;2023-08-01T09:44:11;12.48;;;4.53;;
25279;SDS011;13225;47.804;12.116;2023-08-01T09:46:37;9.55;;;3.72;;
25279;SDS011;13225;47.804;12.116;2023-08-01T09:49:09;6.68;;;3.80;;
25279;SDS011;13225;47.804;12.116;2023-08-01T09:51:57;5.00;;;3.88;;
25279;SDS011;13225;47.804;12.116;2023-08-01T09:54:22;5.03;;;3.30;;
25279;SDS011;13225;47.804;12.116;2023-08-01T09:56:49;3.97;;;3.28;;
25279;SDS011;13225;47.804;12.116;2023-08-01T09:59:18;5.07;;;3.75;;
25279;SDS011;13225;47.804;12.116;2023-08-01T10:01:49;5.65;;;3.63;;
25279;SDS011;13225;47.804;12.116;2023-08-01T10:04:16;4.63;;;3.45;;
25279;SDS011;13225;47.804;12.116;2023-08-01T10:06:43;5.70;;;3.80;;
25279;SDS011;13225;47.804;12.116;2023-08-01T10:09:13;5.45;;;2.95;;
25279;SDS011;13225;47.804;12.116;2023-08-01T10:11:40;4.00;;;2.90;;
25279;SDS011;13225;47.804;12.116;2023-08-01T10:14:06;4.78;;;3.10;;
25279;SDS011;13225;47.804;12.116;2023-08-01T10:16:32;4.00;;;2.95;;
25279;SDS011;13225;47.804;12.116;2023-08-01T10:19:02;4.22;;;3.08;;
25279;SDS011;13225;47.804;12.116;2023-08-01T10:21:31;4.38;;;3.08;;
25279;SDS011;13225;47.804;12.116;2023-08-01T10:23:57;4.00;;;3.50;;
25279;SDS011;13225;47.804;12.116;2023-08-01T10:26:24;4.13;;;3.03;;
25279;SDS011;13225;47.804;12.116;2023-08-01T10:28:50;4.57;;;3.42;;
25279;SDS011;13225;47.804;12.116;2023-08-01T10:31:17;36.15;;;7.07;;
25279;SDS011;13225;47.804;12.116;2023-08-01T10:33:45;8.20;;;3.53;;
25279;SDS011;13225;47.804;12.116;2023-08-01T10:38:50;6.93;;;3.30;;
25279;SDS011;13225;47.804;12.116;2023-08-01T10:46:54;3.67;;;2.80;;
25279;SDS011;13225;47.804;12.116;2023-08-01T10:49:32;4.07;;;3.15;;
25279;SDS011;13225;47.804;12.116;2023-08-01T10:51:58;4.00;;;3.42;;
25279;SDS011;13225;47.804;12.116;2023-08-01T10:54:24;4.32;;;3.08;;
25279;SDS011;13225;47.804;12.116;2023-08-01T10:56:51;3.80;;;3.08;;
25279;SDS011;13225;47.804;12.116;2023-08-01T10:59:18;3.80;;;3.03;;
25279;SDS011;13225;47.804;12.116;2023-08-01T11:01:57;3.20;;;2.70;;
25279;SDS011;13225;47.804;12.116;2023-08-01T11:04:24;3.13;;;2.83;;
25279;SDS011;13225;47.804;12.116;2023-08-01T11:06:54;5.45;;;3.00;;
25279;SDS011;13225;47.804;12.116;2023-08-01T11:09:26;3.83;;;2.90;;
25279;SDS011;13225;47.804;12.116;2023-08-01T11:11:53;4.32;;;3.13;;
25279;SDS011;13225;47.804;12.116;2023-08-01T11:14:24;5.32;;;3.35;;
25279;SDS011;13225;47.804;12.116;2023-08-01T11:16:53;4.93;;;3.38;;
25279;SDS011;13225;47.804;12.116;2023-08-01T11:19:20;6.57;;;3.38;;
25279;SDS011;13225;47.804;12.116;2023-08-01T11:21:51;5.22;;;3.50;;
25279;SDS011;13225;47.804;12.116;2023-08-01T11:24:17;7.88;;;3.70;;
25279;SDS011;13225;47.804;12.116;2023-08-01T11:26:44;6.25;;;3.95;;
25279;SDS011;13225;47.804;12.116;2023-08-01T11:29:11;5.00;;;4.20;;
25279;SDS011;13225;47.804;12.116;2023-08-01T11:31:38;5.05;;;3.60;;
25279;SDS011;13225;47.804;12.116;2023-08-01T11:34:04;5.78;;;4.07;;
25279;SDS011;13225;47.804;12.116;2023-08-01T11:36:30;4.43;;;3.13;;
25279;SDS011;13225;47.804;12.116;2023-08-01T11:38:59;4.07;;;3.25;;
25279;SDS011;13225;47.804;12.116;2023-08-01T11:41:26;6.25;;;3.40;;
25279;SDS011;13225;47.804;12.116;2023-08-01T11:43:52;3.78;;;3.25;;
25279;SDS011;13225;47.804;12.116;2023-08-01T11:46:19;5.00;;;3.65;;
25279;SDS011;13225;47.804;12.116;2023-08-01T11:48:45;6.35;;;4.03;;
25279;SDS011;13225;47.804;12.116;2023-08-01T11:51:17;34.25;;;6.82;;
25279;SDS011;13225;47.804;12.116;2023-08-01T11:53:43;106.60;;;14.48;;
25279;SDS011;13225;47.804;12.116;2023-08-01T11:56:19;8.52;;;4.22;;
25279;SDS011;13225;47.804;12.116;2023-08-01T11:58:45;6.65;;;4.15;;
25279;SDS011;13225;47.804;12.116;2023-08-01T12:01:11;6.25;;;3.92;;
25279;SDS011;13225;47.804;12.116;2023-08-01T12:03:54;5.90;;;4.00;;
25279;SDS011;13225;47.804;12.116;2023-08-01T12:06:21;4.38;;;3.45;;
25279;SDS011;13225;47.804;12.116;2023-08-01T12:08:49;6.30;;;3.92;;
25279;SDS011;13225;47.804;12.116;2023-08-01T12:11:25;6.07;;;3.90;;
25279;SDS011;13225;47.804;12.116;2023-08-01T12:16:27;6.27;;;3.63;;
25279;SDS011;13225;47.804;12.116;2023-08-01T12:18:53;6.47;;;3.90;;
25279;SDS011;13225;47.804;12.116;2023-08-01T12:21:18;6.65;;;4.32;;
25279;SDS011;13225;47.804;12.116;2023-08-01T12:23:44;7.35;;;4.30;;
25279;SDS011;13225;47.804;12.116;2023-08-01T12:26:09;7.88;;;4.40;;
25279;SDS011;13225;47.804;12.116;2023-08-01T12:28:35;5.47;;;3.75;;
25279;SDS011;13225;47.804;12.116;2023-08-01T12:31:01;6.15;;;4.70;;
25279;SDS011;13225;47.804;12.116;2023-08-01T12:33:28;7.15;;;3.95;;
25279;SDS011;13225;47.804;12.116;2023-08-01T12:35:54;8.57;;;4.68;;
25279;SDS011;13225;47.804;12.116;2023-08-01T12:38:19;6.05;;;4.40;;
25279;SDS011;13225;47.804;12.116;2023-08-01T12:40:45;6.55;;;4.22;;
25279;SDS011;13225;47.804;12.116;2023-08-01T12:43:12;7.35;;;4.40;;
25279;SDS011;13225;47.804;12.116;2023-08-01T12:45:37;5.68;;;4.38;;
25279;SDS011;13225;47.804;12.116;2023-08-01T12:48:03;5.75;;;4.32;;
25279;SDS011;13225;47.804;12.116;2023-08-01T12:50:29;8.27;;;3.85;;
25279;SDS011;13225;47.804;12.116;2023-08-01T12:52:54;8.70;;;3.97;;
25279;SDS011;13225;47.804;12.116;2023-08-01T12:55:20;5.22;;;4.25;;
25279;SDS011;13225;47.804;12.116;2023-08-01T12:57:46;5.38;;;4.40;;
25279;SDS011;13225;47.804;12.116;2023-08-01T13:00:12;6.18;;;4.07;;
25279;SDS011;13225;47.804;12.116;2023-08-01T13:02:37;5.43;;;4.22;;
25279;SDS011;13225;47.804;12.116;2023-08-01T13:05:04;5.72;;;3.45;;
25279;SDS011;13225;47.804;12.116;2023-08-01T13:07:30;3.78;;;2.60;;
25279;SDS011;13225;47.804;12.116;2023-08-01T13:09:59;4.65;;;2.88;;
25279;SDS011;13225;47.804;12.116;2023-08-01T13:12:28;3.75;;;2.95;;
25279;SDS011;13225;47.804;12.116;2023-08-01T13:14:53;4.95;;;3.08;;
25279;SDS011;13225;47.804;12.116;2023-08-01T13:17:19;23.27;;;4.32;;
25279;SDS011;13225;47.804;12.116;2023-08-01T13:19:45;3.72;;;2.60;;
25279;SDS011;13225;47.804;12.116;2023-08-01T13:22:10;4.47;;;2.63;;
25279;SDS011;13225;47.804;12.116;2023-08-01T13:24:36;3.33;;;2.50;;
25279;SDS011;13225;47.804;12.116;2023-08-01T13:27:02;2.90;;;2.20;;
25279;SDS011;13225;47.804;12.116;2023-08-01T13:29:27;34.40;;;5.68;;
25279;SDS011;13225;47.804;12.116;2023-08-01T13:31:53;5.05;;;2.65;;
25279;SDS011;13225;47.804;12.116;2023-08-01T13:34:19;5.15;;;2.10;;
25279;SDS011;13225;47.804;12.116;2023-08-01T13:36:44;3.25;;;2.05;;
25279;SDS011;13225;47.804;12.116;2023-08-01T13:39:10;2.38;;;1.92;;
25279;SDS011;13225;47.804;12.116;2023-08-01T13:41:35;2.80;;;2.30;;
25279;SDS011;13225;47.804;12.116;2023-08-01T13:44:01;2.80;;;2.25;;
25279;SDS011;13225;47.804;12.116;2023-08-01T13:46:27;3.05;;;1.98;;
25279;SDS011;13225;47.804;12.116;2023-08-01T13:48:52;2.92;;;1.95;;
25279;SDS011;13225;47.804;12.116;2023-08-01T13:51:18;3.83;;;2.08;;
25279;SDS011;13225;47.804;12.116;2023-08-01T13:53:45;2.75;;;1.90;;
25279;SDS011;13225;47.804;12.116;2023-08-01T13:56:10;2.15;;;1.90;;
25279;SDS011;13225;47.804;12.116;2023-08-01T13:58:39;3.42;;;1.90;;
25279;SDS011;13225;47.804;12.116;2023-08-01T14:01:05;2.35;;;1.90;;
25279;SDS011;13225;47.804;12.116;2023-08-01T14:03:35;3.40;;;2.00;;
25279;SDS011;13225;47.804;12.116;2023-08-01T14:08:33;3.55;;;1.90;;
25279;SDS011;13225;47.804;12.116;2023-08-01T14:10:59;2.13;;;1.83;;
25279;SDS011;13225;47.804;12.116;2023-08-01T14:13:26;4.13;;;3.08;;
25279;SDS011;13225;47.804;12.116;2023-08-01T14:15:52;1.90;;;1.40;;
25279;SDS011;13225;47.804;12.116;2023-08-01T14:18:17;1.58;;;1.20;;
25279;SDS011;13225;47.804;12.116;2023-08-01T14:20:43;1.33;;;1.17;;
25279;SDS011;13225;47.804;12.116;2023-08-01T14:23:08;1.40;;;1.30;;
25279;SDS011;13225;47.804;12.116;2023-08-01T14:25:34;1.20;;;1.10;;
25279;SDS011;13225;47.804;12.116;2023-08-01T14:28:00;1.05;;;0.93;;
25279;SDS011;13225;47.804;12.116;2023-08-01T14:30:27;1.20;;;1.10;;
25279;SDS011;13225;47.804;12.116;2023-08-01T14:32:58;3.20;;;1.10;;
25279;SDS011;13225;47.804;12.116;2023-08-01T14:35:28;3.03;;;1.23;;
25279;SDS011;13225;47.804;12.116;2023-08-01T14:37:54;2.08;;;0.90;;
25279;SDS011;13225;47.804;12.116;2023-08-01T14:40:20;1.80;;;1.20;;
25279;SDS011;13225;47.804;12.116;2023-08-01T14:42:46;2.40;;;1.38;;